sensor_id;sensor_type;location;lat;lon;timestamp;temperature;humidity
16198;DHT22;8206;51.440;6.914;2023-06-05T00:01:06;15.10;99.90
16198;DHT22;8206;51.440;6.914;2023-06-05T00:03:34;15.00;99.90
16198;DHT22;8206;51.440;6.914;2023-06-05T00:06:02;15.00;99.90
16198;DHT22;8206;51.440;6.914;2023-06-05T00:08:29;15.00;99.90
16198;DHT22;8206;51.440;6.914;2023-06-05T00:10:56;14.90;99.90
16198;DHT22;8206;51.440;6.914;2023-06-05T00:13:22;14.80;99.90
16198;DHT22;8206;51.440;6.914;2023-06-05T00:15:49;14.80;99.90
16198;DHT22;8206;51.440;6.914;2023-06-05T00:18:17;14.80;99.90
16198;DHT22;8206;51.440;6.914;2023-06-05T00:20:45;14.70;99.90
16198;DHT22;8206;51.440;6.914;2023-06-05T00:23:13;14.60;99.90
16198;DHT22;8206;51.440;6.914;2023-06-05T00:25:40;14.60;99.90
16198;DHT22;8206;51.440;6.914;2023-06-05T00:28:07;14.60;99.90
16198;DHT22;8206;51.440;6.914;2023-06-05T00:30:33;14.50;99.90
16198;DHT22;8206;51.440;6.914;2023-06-05T00:33:01;14.50;99.90
16198;DHT22;8206;51.440;6.914;2023-06-05T00:35:27;14.40;99.90
16198;DHT22;8206;51.440;6.914;2023-06-05T00:37:55;14.40;99.90
16198;DHT22;8206;51.440;6.914;2023-06-05T00:40:22;14.40;99.90
16198;DHT22;8206;51.440;6.914;2023-06-05T00:42:49;14.40;99.90
16198;DHT22;8206;51.440;6.914;2023-06-05T00:45:15;14.30;99.90
16198;DHT22;8206;51.440;6.914;2023-06-05T00:47:42;14.30;99.90
16198;DHT22;8206;51.440;6.914;2023-06-05T00:50:10;14.30;99.90
16198;DHT22;8206;51.440;6.914;2023-06-05T00:52:38;14.30;99.90
16198;DHT22;8206;51.440;6.914;2023-06-05T00:55:08;14.20;99.90
16198;DHT22;8206;51.440;6.914;2023-06-05T00:57:35;14.20;99.90
16198;DHT22;8206;51.440;6.914;2023-06-05T01:00:05;14.10;99.90
16198;DHT22;8206;51.440;6.914;2023-06-05T01:02:33;14.10;99.90
16198;DHT22;8206;51.440;6.914;2023-06-05T01:05:02;14.10;99.90
16198;DHT22;8206;51.440;6.914;2023-06-05T01:07:29;14.00;99.90
16198;DHT22;8206;51.440;6.914;2023-06-05T01:09:58;14.00;99.90
16198;DHT22;8206;51.440;6.914;2023-06-05T01:12:29;13.90;99.90
16198;DHT22;8206;51.440;6.914;2023-06-05T01:15:01;13.90;99.90
16198;DHT22;8206;51.440;6.914;2023-06-05T01:17:30;13.90;99.90
16198;DHT22;8206;51.440;6.914;2023-06-05T01:19:58;13.80;99.90
16198;DHT22;8206;51.440;6.914;2023-06-05T01:22:26;13.80;99.90
16198;DHT22;8206;51.440;6.914;2023-06-05T01:24:54;13.70;99.90
16198;DHT22;8206;51.440;6.914;2023-06-05T01:27:27;13.70;99.90
16198;DHT22;8206;51.440;6.914;2023-06-05T01:30:01;13.60;99.90
16198;DHT22;8206;51.440;6.914;2023-06-05T01:32:30;13.60;99.90
16198;DHT22;8206;51.440;6.914;2023-06-05T01:35:02;13.50;99.90
16198;DHT22;8206;51.440;6.914;2023-06-05T01:37:31;13.50;99.90
16198;DHT22;8206;51.440;6.914;2023-06-05T01:40:10;13.40;99.90
16198;DHT22;8206;51.440;6.914;2023-06-05T01:42:38;13.40;99.90
16198;DHT22;8206;51.440;6.914;2023-06-05T01:45:06;13.30;99.90
16198;DHT22;8206;51.440;6.914;2023-06-05T01:47:34;13.30;99.90
16198;DHT22;8206;51.440;6.914;2023-06-05T01:50:01;13.20;99.90
16198;DHT22;8206;51.440;6.914;2023-06-05T01:52:28;13.20;99.90
16198;DHT22;8206;51.440;6.914;2023-06-05T01:54:54;13.20;99.90
16198;DHT22;8206;51.440;6.914;2023-06-05T01:57:27;13.10;99.90
16198;DHT22;8206;51.440;6.914;2023-06-05T01:59:54;13.00;99.90
16198;DHT22;8206;51.440;6.914;2023-06-05T02:02:21;13.00;99.90
16198;DHT22;8206;51.440;6.914;2023-06-05T02:04:49;13.00;99.90
16198;DHT22;8206;51.440;6.914;2023-06-05T02:07:15;12.90;99.90
16198;DHT22;8206;51.440;6.914;2023-06-05T02:09:42;12.90;99.90
16198;DHT22;8206;51.440;6.914;2023-06-05T02:12:09;12.80;99.90
16198;DHT22;8206;51.440;6.914;2023-06-05T02:14:40;12.80;99.90
16198;DHT22;8206;51.440;6.914;2023-06-05T02:17:10;12.70;99.90
16198;DHT22;8206;51.440;6.914;2023-06-05T02:19:38;12.70;99.90
16198;DHT22;8206;51.440;6.914;2023-06-05T02:22:05;12.70;99.90
16198;DHT22;8206;51.440;6.914;2023-06-05T02:24:32;12.60;99.90
16198;DHT22;8206;51.440;6.914;2023-06-05T02:26:59;12.60;99.90
16198;DHT22;8206;51.440;6.914;2023-06-05T02:29:26;12.50;99.90
16198;DHT22;8206;51.440;6.914;2023-06-05T02:31:54;12.50;99.90
16198;DHT22;8206;51.440;6.914;2023-06-05T02:34:20;12.50;99.90
16198;DHT22;8206;51.440;6.914;2023-06-05T02:36:47;12.40;99.90
16198;DHT22;8206;51.440;6.914;2023-06-05T02:39:15;12.40;99.90
16198;DHT22;8206;51.440;6.914;2023-06-05T02:41:43;12.30;99.90
16198;DHT22;8206;51.440;6.914;2023-06-05T02:44:10;12.30;99.90
16198;DHT22;8206;51.440;6.914;2023-06-05T02:46:36;12.30;99.90
16198;DHT22;8206;51.440;6.914;2023-06-05T02:49:04;12.20;99.90
16198;DHT22;8206;51.440;6.914;2023-06-05T02:51:31;12.20;99.90
16198;DHT22;8206;51.440;6.914;2023-06-05T02:53:58;12.20;99.90
16198;DHT22;8206;51.440;6.914;2023-06-05T02:56:25;12.20;99.90
16198;DHT22;8206;51.440;6.914;2023-06-05T02:58:52;12.10;99.90
16198;DHT22;8206;51.440;6.914;2023-06-05T03:01:19;12.10;1.00
16198;DHT22;8206;51.440;6.914;2023-06-05T03:03:47;12.10;1.00
16198;DHT22;8206;51.440;6.914;2023-06-05T03:06:15;12.00;1.00
16198;DHT22;8206;51.440;6.914;2023-06-05T03:08:43;11.90;99.90
16198;DHT22;8206;51.440;6.914;2023-06-05T03:11:10;12.00;1.00
16198;DHT22;8206;51.440;6.914;2023-06-05T03:13:37;11.90;1.00
16198;DHT22;8206;51.440;6.914;2023-06-05T03:16:04;11.90;99.90
16198;DHT22;8206;51.440;6.914;2023-06-05T03:18:30;11.80;99.90
16198;DHT22;8206;51.440;6.914;2023-06-05T03:20:57;11.90;1.00
16198;DHT22;8206;51.440;6.914;2023-06-05T03:23:26;11.80;1.00
16198;DHT22;8206;51.440;6.914;2023-06-05T03:25:54;11.80;1.00
16198;DHT22;8206;51.440;6.914;2023-06-05T03:28:21;11.80;1.00
16198;DHT22;8206;51.440;6.914;2023-06-05T03:30:49;11.80;1.00
16198;DHT22;8206;51.440;6.914;2023-06-05T03:33:16;11.80;1.00
16198;DHT22;8206;51.440;6.914;2023-06-05T03:35:43;11.70;1.00
16198;DHT22;8206;51.440;6.914;2023-06-05T03:38:11;11.70;1.00
16198;DHT22;8206;51.440;6.914;2023-06-05T03:40:39;11.70;1.00
16198;DHT22;8206;51.440;6.914;2023-06-05T03:43:06;11.70;1.00
16198;DHT22;8206;51.440;6.914;2023-06-05T03:45:33;11.80;1.00
16198;DHT22;8206;51.440;6.914;2023-06-05T03:48:00;11.80;1.00
16198;DHT22;8206;51.440;6.914;2023-06-05T03:50:27;11.80;1.00
16198;DHT22;8206;51.440;6.914;2023-06-05T03:52:56;11.80;1.00
16198;DHT22;8206;51.440;6.914;2023-06-05T03:55:28;11.90;1.00
16198;DHT22;8206;51.440;6.914;2023-06-05T03:58:08;12.10;1.00
16198;DHT22;8206;51.440;6.914;2023-06-05T04:00:35;12.40;1.00
16198;DHT22;8206;51.440;6.914;2023-06-05T04:03:02;12.60;1.00
16198;DHT22;8206;51.440;6.914;2023-06-05T04:05:28;12.90;1.00
16198;DHT22;8206;51.440;6.914;2023-06-05T04:07:55;13.00;1.00
16198;DHT22;8206;51.440;6.914;2023-06-05T04:10:22;13.30;1.00
16198;DHT22;8206;51.440;6.914;2023-06-05T04:12:49;13.50;1.00
16198;DHT22;8206;51.440;6.914;2023-06-05T04:15:17;13.70;1.00
16198;DHT22;8206;51.440;6.914;2023-06-05T04:17:44;14.00;99.90
16198;DHT22;8206;51.440;6.914;2023-06-05T04:20:11;14.10;99.90
16198;DHT22;8206;51.440;6.914;2023-06-05T04:22:39;14.20;99.90
16198;DHT22;8206;51.440;6.914;2023-06-05T04:25:07;14.30;99.90
16198;DHT22;8206;51.440;6.914;2023-06-05T04:27:35;14.60;99.90
16198;DHT22;8206;51.440;6.914;2023-06-05T04:30:03;14.80;99.90
16198;DHT22;8206;51.440;6.914;2023-06-05T04:32:32;14.90;99.90
16198;DHT22;8206;51.440;6.914;2023-06-05T04:34:59;15.10;99.90
16198;DHT22;8206;51.440;6.914;2023-06-05T04:37:26;15.20;99.90
16198;DHT22;8206;51.440;6.914;2023-06-05T04:39:53;15.30;99.90
16198;DHT22;8206;51.440;6.914;2023-06-05T04:42:20;15.60;99.90
16198;DHT22;8206;51.440;6.914;2023-06-05T04:44:53;15.70;99.90
16198;DHT22;8206;51.440;6.914;2023-06-05T04:47:22;15.90;99.90
16198;DHT22;8206;51.440;6.914;2023-06-05T04:49:50;15.90;99.90
16198;DHT22;8206;51.440;6.914;2023-06-05T04:52:18;16.10;99.90
16198;DHT22;8206;51.440;6.914;2023-06-05T04:54:46;16.30;99.90
16198;DHT22;8206;51.440;6.914;2023-06-05T04:57:14;16.50;99.90
16198;DHT22;8206;51.440;6.914;2023-06-05T04:59:41;16.70;99.90
16198;DHT22;8206;51.440;6.914;2023-06-05T05:02:08;16.80;99.90
16198;DHT22;8206;51.440;6.914;2023-06-05T05:04:35;16.90;99.90
16198;DHT22;8206;51.440;6.914;2023-06-05T05:07:03;17.10;99.90
16198;DHT22;8206;51.440;6.914;2023-06-05T05:09:30;17.30;99.90
16198;DHT22;8206;51.440;6.914;2023-06-05T05:11:58;17.60;99.90
16198;DHT22;8206;51.440;6.914;2023-06-05T05:14:25;17.60;99.90
16198;DHT22;8206;51.440;6.914;2023-06-05T05:16:52;17.90;99.90
16198;DHT22;8206;51.440;6.914;2023-06-05T05:19:19;17.90;99.90
16198;DHT22;8206;51.440;6.914;2023-06-05T05:21:47;18.10;99.90
16198;DHT22;8206;51.440;6.914;2023-06-05T05:24:15;18.00;99.90
16198;DHT22;8206;51.440;6.914;2023-06-05T05:26:42;18.10;99.90
16198;DHT22;8206;51.440;6.914;2023-06-05T05:29:09;18.40;99.90
16198;DHT22;8206;51.440;6.914;2023-06-05T05:31:35;18.50;99.90
16198;DHT22;8206;51.440;6.914;2023-06-05T05:34:03;18.80;99.90
16198;DHT22;8206;51.440;6.914;2023-06-05T05:36:30;19.30;99.90
16198;DHT22;8206;51.440;6.914;2023-06-05T05:38:59;19.60;99.90
16198;DHT22;8206;51.440;6.914;2023-06-05T05:41:27;19.40;99.90
16198;DHT22;8206;51.440;6.914;2023-06-05T05:43:53;19.50;99.90
16198;DHT22;8206;51.440;6.914;2023-06-05T05:46:20;19.70;99.90
16198;DHT22;8206;51.440;6.914;2023-06-05T05:48:47;19.90;99.90
16198;DHT22;8206;51.440;6.914;2023-06-05T05:51:13;20.30;99.90
16198;DHT22;8206;51.440;6.914;2023-06-05T05:53:40;20.60;99.90
16198;DHT22;8206;51.440;6.914;2023-06-05T05:56:07;20.60;99.90
16198;DHT22;8206;51.440;6.914;2023-06-05T05:58:35;20.80;99.90
16198;DHT22;8206;51.440;6.914;2023-06-05T06:01:01;20.90;99.90
16198;DHT22;8206;51.440;6.914;2023-06-05T06:03:28;21.00;99.90
16198;DHT22;8206;51.440;6.914;2023-06-05T06:05:55;21.40;99.90
16198;DHT22;8206;51.440;6.914;2023-06-05T06:08:22;21.40;99.90
16198;DHT22;8206;51.440;6.914;2023-06-05T06:10:50;21.30;99.90
16198;DHT22;8206;51.440;6.914;2023-06-05T06:13:17;21.60;99.90
16198;DHT22;8206;51.440;6.914;2023-06-05T06:15:45;22.10;99.90
16198;DHT22;8206;51.440;6.914;2023-06-05T06:18:12;22.00;99.90
16198;DHT22;8206;51.440;6.914;2023-06-05T06:20:38;21.80;99.90
16198;DHT22;8206;51.440;6.914;2023-06-05T06:23:05;22.10;99.90
16198;DHT22;8206;51.440;6.914;2023-06-05T06:25:32;22.40;99.90
16198;DHT22;8206;51.440;6.914;2023-06-05T06:27:59;22.60;99.90
16198;DHT22;8206;51.440;6.914;2023-06-05T06:30:26;22.60;99.90
16198;DHT22;8206;51.440;6.914;2023-06-05T06:32:56;22.90;99.90
16198;DHT22;8206;51.440;6.914;2023-06-05T06:35:24;22.70;99.90
16198;DHT22;8206;51.440;6.914;2023-06-05T06:37:53;22.60;99.90
16198;DHT22;8206;51.440;6.914;2023-06-05T06:40:20;23.10;99.90
16198;DHT22;8206;51.440;6.914;2023-06-05T06:42:47;23.80;99.90
16198;DHT22;8206;51.440;6.914;2023-06-05T06:45:14;23.80;99.90
16198;DHT22;8206;51.440;6.914;2023-06-05T06:47:41;23.60;99.90
16198;DHT22;8206;51.440;6.914;2023-06-05T06:50:09;23.90;99.90
16198;DHT22;8206;51.440;6.914;2023-06-05T06:52:36;24.20;99.90
16198;DHT22;8206;51.440;6.914;2023-06-05T06:55:03;24.40;99.90
16198;DHT22;8206;51.440;6.914;2023-06-05T06:57:30;24.50;99.90
16198;DHT22;8206;51.440;6.914;2023-06-05T06:59:57;24.40;99.90
16198;DHT22;8206;51.440;6.914;2023-06-05T07:02:25;24.50;99.90
16198;DHT22;8206;51.440;6.914;2023-06-05T07:04:52;24.50;99.90
16198;DHT22;8206;51.440;6.914;2023-06-05T07:07:21;24.70;99.90
16198;DHT22;8206;51.440;6.914;2023-06-05T07:09:49;24.60;99.90
16198;DHT22;8206;51.440;6.914;2023-06-05T07:12:17;24.10;99.90
16198;DHT22;8206;51.440;6.914;2023-06-05T07:14:45;23.70;99.90
16198;DHT22;8206;51.440;6.914;2023-06-05T07:17:12;23.20;99.90
16198;DHT22;8206;51.440;6.914;2023-06-05T07:19:39;22.30;99.90
16198;DHT22;8206;51.440;6.914;2023-06-05T07:22:06;21.50;99.90
16198;DHT22;8206;51.440;6.914;2023-06-05T07:24:35;21.20;99.90
16198;DHT22;8206;51.440;6.914;2023-06-05T07:27:02;20.80;99.90
16198;DHT22;8206;51.440;6.914;2023-06-05T07:29:29;20.60;99.90
16198;DHT22;8206;51.440;6.914;2023-06-05T07:31:57;20.50;99.90
16198;DHT22;8206;51.440;6.914;2023-06-05T07:34:25;20.50;99.90
16198;DHT22;8206;51.440;6.914;2023-06-05T07:36:52;20.40;99.90
16198;DHT22;8206;51.440;6.914;2023-06-05T07:39:19;20.10;99.90
16198;DHT22;8206;51.440;6.914;2023-06-05T07:41:48;19.90;99.90
16198;DHT22;8206;51.440;6.914;2023-06-05T07:44:17;19.60;99.90
16198;DHT22;8206;51.440;6.914;2023-06-05T07:46:45;19.40;99.90
16198;DHT22;8206;51.440;6.914;2023-06-05T07:49:12;19.40;99.90
16198;DHT22;8206;51.440;6.914;2023-06-05T07:51:39;19.40;99.90
16198;DHT22;8206;51.440;6.914;2023-06-05T07:54:08;19.60;99.90
16198;DHT22;8206;51.440;6.914;2023-06-05T07:56:35;19.70;99.90
16198;DHT22;8206;51.440;6.914;2023-06-05T07:59:05;19.70;99.90
16198;DHT22;8206;51.440;6.914;2023-06-05T08:01:33;19.50;99.90
16198;DHT22;8206;51.440;6.914;2023-06-05T08:04:02;19.50;99.90
16198;DHT22;8206;51.440;6.914;2023-06-05T08:06:29;19.50;99.90
16198;DHT22;8206;51.440;6.914;2023-06-05T08:08:58;19.60;99.90
16198;DHT22;8206;51.440;6.914;2023-06-05T08:11:25;19.70;99.90
16198;DHT22;8206;51.440;6.914;2023-06-05T08:13:53;19.90;99.90
16198;DHT22;8206;51.440;6.914;2023-06-05T08:16:22;20.00;99.90
16198;DHT22;8206;51.440;6.914;2023-06-05T08:18:48;20.10;99.90
16198;DHT22;8206;51.440;6.914;2023-06-05T08:21:15;20.20;99.90
16198;DHT22;8206;51.440;6.914;2023-06-05T08:23:42;20.30;99.90
16198;DHT22;8206;51.440;6.914;2023-06-05T08:26:08;20.40;99.90
16198;DHT22;8206;51.440;6.914;2023-06-05T08:28:37;20.40;99.90
16198;DHT22;8206;51.440;6.914;2023-06-05T08:31:04;20.40;99.90
16198;DHT22;8206;51.440;6.914;2023-06-05T08:33:33;20.30;99.90
16198;DHT22;8206;51.440;6.914;2023-06-05T08:36:00;20.20;99.90
16198;DHT22;8206;51.440;6.914;2023-06-05T08:38:28;20.20;99.90
16198;DHT22;8206;51.440;6.914;2023-06-05T08:40:56;20.30;99.90
16198;DHT22;8206;51.440;6.914;2023-06-05T08:43:26;20.40;99.90
16198;DHT22;8206;51.440;6.914;2023-06-05T08:45:53;20.40;99.90
16198;DHT22;8206;51.440;6.914;2023-06-05T08:48:21;20.60;99.90
16198;DHT22;8206;51.440;6.914;2023-06-05T08:50:50;20.70;99.90
16198;DHT22;8206;51.440;6.914;2023-06-05T08:53:17;20.80;99.90
16198;DHT22;8206;51.440;6.914;2023-06-05T08:55:44;20.80;99.90
16198;DHT22;8206;51.440;6.914;2023-06-05T08:58:13;21.00;99.90
16198;DHT22;8206;51.440;6.914;2023-06-05T09:00:40;21.00;99.90
16198;DHT22;8206;51.440;6.914;2023-06-05T09:03:10;21.10;99.90
16198;DHT22;8206;51.440;6.914;2023-06-05T09:05:39;21.30;99.90
16198;DHT22;8206;51.440;6.914;2023-06-05T09:08:06;21.40;99.90
16198;DHT22;8206;51.440;6.914;2023-06-05T09:10:33;21.50;99.90
16198;DHT22;8206;51.440;6.914;2023-06-05T09:13:03;21.70;99.90
16198;DHT22;8206;51.440;6.914;2023-06-05T09:15:32;21.80;99.90
16198;DHT22;8206;51.440;6.914;2023-06-05T09:18:03;21.80;99.90
16198;DHT22;8206;51.440;6.914;2023-06-05T09:20:32;21.70;99.90
16198;DHT22;8206;51.440;6.914;2023-06-05T09:23:00;21.50;99.90
16198;DHT22;8206;51.440;6.914;2023-06-05T09:25:43;21.60;99.90
16198;DHT22;8206;51.440;6.914;2023-06-05T09:28:13;21.70;99.90
16198;DHT22;8206;51.440;6.914;2023-06-05T09:30:54;21.90;99.90
16198;DHT22;8206;51.440;6.914;2023-06-05T09:33:21;22.00;99.90
16198;DHT22;8206;51.440;6.914;2023-06-05T09:36:01;22.10;99.90
16198;DHT22;8206;51.440;6.914;2023-06-05T09:38:28;22.20;99.90
16198;DHT22;8206;51.440;6.914;2023-06-05T09:41:05;22.20;99.90
16198;DHT22;8206;51.440;6.914;2023-06-05T09:43:32;22.30;99.90
16198;DHT22;8206;51.440;6.914;2023-06-05T09:46:06;22.40;99.90
16198;DHT22;8206;51.440;6.914;2023-06-05T09:48:32;22.60;99.90
16198;DHT22;8206;51.440;6.914;2023-06-05T09:51:08;22.70;99.90
16198;DHT22;8206;51.440;6.914;2023-06-05T09:53:40;22.80;99.90
16198;DHT22;8206;51.440;6.914;2023-06-05T09:56:10;22.90;99.90
16198;DHT22;8206;51.440;6.914;2023-06-05T09:58:37;22.70;99.90
16198;DHT22;8206;51.440;6.914;2023-06-05T10:01:06;22.80;99.90
16198;DHT22;8206;51.440;6.914;2023-06-05T10:03:36;22.80;99.90
16198;DHT22;8206;51.440;6.914;2023-06-05T10:06:06;22.80;99.90
16198;DHT22;8206;51.440;6.914;2023-06-05T10:08:32;22.90;99.90
16198;DHT22;8206;51.440;6.914;2023-06-05T10:11:00;22.70;99.90
16198;DHT22;8206;51.440;6.914;2023-06-05T10:13:29;22.60;99.90
16198;DHT22;8206;51.440;6.914;2023-06-05T10:15:55;22.80;99.90
16198;DHT22;8206;51.440;6.914;2023-06-05T10:18:22;23.00;99.90
16198;DHT22;8206;51.440;6.914;2023-06-05T10:20:49;23.20;99.90
16198;DHT22;8206;51.440;6.914;2023-06-05T10:23:17;23.30;99.90
16198;DHT22;8206;51.440;6.914;2023-06-05T10:25:46;23.40;99.90
16198;DHT22;8206;51.440;6.914;2023-06-05T10:28:29;23.00;99.90
16198;DHT22;8206;51.440;6.914;2023-06-05T10:31:13;23.20;99.90
16198;DHT22;8206;51.440;6.914;2023-06-05T10:33:51;23.20;99.90
16198;DHT22;8206;51.440;6.914;2023-06-05T10:36:32;23.20;99.90
16198;DHT22;8206;51.440;6.914;2023-06-05T10:39:05;23.20;99.90
16198;DHT22;8206;51.440;6.914;2023-06-05T10:41:33;23.10;99.90
16198;DHT22;8206;51.440;6.914;2023-06-05T10:44:01;23.20;99.90
16198;DHT22;8206;51.440;6.914;2023-06-05T10:46:29;23.50;99.90
16198;DHT22;8206;51.440;6.914;2023-06-05T10:49:10;23.70;99.90
16198;DHT22;8206;51.440;6.914;2023-06-05T10:51:39;24.00;99.90
16198;DHT22;8206;51.440;6.914;2023-06-05T10:54:07;24.10;99.90
16198;DHT22;8206;51.440;6.914;2023-06-05T10:56:53;24.10;99.90
16198;DHT22;8206;51.440;6.914;2023-06-05T10:59:23;24.10;99.90
16198;DHT22;8206;51.440;6.914;2023-06-05T11:02:22;23.90;99.90
16198;DHT22;8206;51.440;6.914;2023-06-05T11:05:19;23.90;99.90
16198;DHT22;8206;51.440;6.914;2023-06-05T11:07:47;23.90;99.90
16198;DHT22;8206;51.440;6.914;2023-06-05T11:10:15;24.00;99.90
16198;DHT22;8206;51.440;6.914;2023-06-05T11:12:56;24.00;99.90
16198;DHT22;8206;51.440;6.914;2023-06-05T11:15:37;24.10;99.90
16198;DHT22;8206;51.440;6.914;2023-06-05T11:18:29;23.80;99.90
16198;DHT22;8206;51.440;6.914;2023-06-05T11:20:57;23.90;99.90
16198;DHT22;8206;51.440;6.914;2023-06-05T11:23:24;24.00;99.90
16198;DHT22;8206;51.440;6.914;2023-06-05T11:25:54;24.00;99.90
16198;DHT22;8206;51.440;6.914;2023-06-05T11:28:42;24.00;99.90
16198;DHT22;8206;51.440;6.914;2023-06-05T11:31:11;24.10;99.90
16198;DHT22;8206;51.440;6.914;2023-06-05T11:33:38;24.00;99.90
16198;DHT22;8206;51.440;6.914;2023-06-05T11:36:05;24.00;99.90
16198;DHT22;8206;51.440;6.914;2023-06-05T11:38:33;24.00;99.90
16198;DHT22;8206;51.440;6.914;2023-06-05T11:41:05;24.00;99.90
16198;DHT22;8206;51.440;6.914;2023-06-05T11:43:33;24.20;99.90
16198;DHT22;8206;51.440;6.914;2023-06-05T11:46:00;24.10;99.90
16198;DHT22;8206;51.440;6.914;2023-06-05T11:48:29;23.90;99.90
16198;DHT22;8206;51.440;6.914;2023-06-05T11:50:58;24.10;99.90
16198;DHT22;8206;51.440;6.914;2023-06-05T11:53:26;24.20;99.90
16198;DHT22;8206;51.440;6.914;2023-06-05T11:55:53;24.10;99.90
16198;DHT22;8206;51.440;6.914;2023-06-05T11:58:33;24.10;99.90
16198;DHT22;8206;51.440;6.914;2023-06-05T12:01:06;24.10;99.90
16198;DHT22;8206;51.440;6.914;2023-06-05T12:03:35;24.20;99.90
16198;DHT22;8206;51.440;6.914;2023-06-05T12:06:05;24.30;99.90
16198;DHT22;8206;51.440;6.914;2023-06-05T12:08:33;24.30;99.90
16198;DHT22;8206;51.440;6.914;2023-06-05T12:11:02;24.30;99.90
16198;DHT22;8206;51.440;6.914;2023-06-05T12:13:44;24.50;99.90
16198;DHT22;8206;51.440;6.914;2023-06-05T12:16:12;24.50;99.90
16198;DHT22;8206;51.440;6.914;2023-06-05T12:18:40;24.50;99.90
16198;DHT22;8206;51.440;6.914;2023-06-05T12:21:08;24.50;99.90
16198;DHT22;8206;51.440;6.914;2023-06-05T12:23:44;24.70;99.90
16198;DHT22;8206;51.440;6.914;2023-06-05T12:26:11;24.80;99.90
16198;DHT22;8206;51.440;6.914;2023-06-05T12:28:38;24.80;99.90
16198;DHT22;8206;51.440;6.914;2023-06-05T12:31:05;25.00;99.90
16198;DHT22;8206;51.440;6.914;2023-06-05T12:33:32;25.10;99.90
16198;DHT22;8206;51.440;6.914;2023-06-05T12:36:04;25.10;99.90
16198;DHT22;8206;51.440;6.914;2023-06-05T12:38:36;25.10;99.90
16198;DHT22;8206;51.440;6.914;2023-06-05T12:41:03;25.10;99.90
16198;DHT22;8206;51.440;6.914;2023-06-05T12:43:31;25.20;99.90
16198;DHT22;8206;51.440;6.914;2023-06-05T12:45:58;25.20;99.90
16198;DHT22;8206;51.440;6.914;2023-06-05T12:48:25;25.10;99.90
16198;DHT22;8206;51.440;6.914;2023-06-05T12:50:52;25.10;99.90
16198;DHT22;8206;51.440;6.914;2023-06-05T12:53:20;25.10;99.90
16198;DHT22;8206;51.440;6.914;2023-06-05T12:55:47;24.90;99.90
16198;DHT22;8206;51.440;6.914;2023-06-05T12:58:14;24.80;99.90
16198;DHT22;8206;51.440;6.914;2023-06-05T13:00:41;25.00;99.90
16198;DHT22;8206;51.440;6.914;2023-06-05T13:03:09;25.10;99.90
16198;DHT22;8206;51.440;6.914;2023-06-05T13:05:36;25.30;99.90
16198;DHT22;8206;51.440;6.914;2023-06-05T13:08:02;25.40;99.90
16198;DHT22;8206;51.440;6.914;2023-06-05T13:10:30;25.50;99.90
16198;DHT22;8206;51.440;6.914;2023-06-05T13:12:57;25.30;99.90
16198;DHT22;8206;51.440;6.914;2023-06-05T13:15:24;25.30;99.90
16198;DHT22;8206;51.440;6.914;2023-06-05T13:17:50;25.40;99.90
16198;DHT22;8206;51.440;6.914;2023-06-05T13:20:17;25.40;99.90
16198;DHT22;8206;51.440;6.914;2023-06-05T13:22:44;25.50;99.90
16198;DHT22;8206;51.440;6.914;2023-06-05T13:25:10;25.50;99.90
16198;DHT22;8206;51.440;6.914;2023-06-05T13:27:39;25.30;99.90
16198;DHT22;8206;51.440;6.914;2023-06-05T13:30:07;25.20;99.90
16198;DHT22;8206;51.440;6.914;2023-06-05T13:32:34;25.10;99.90
16198;DHT22;8206;51.440;6.914;2023-06-05T13:35:02;25.40;99.90
16198;DHT22;8206;51.440;6.914;2023-06-05T13:37:30;25.50;99.90
16198;DHT22;8206;51.440;6.914;2023-06-05T13:39:57;25.60;99.90
16198;DHT22;8206;51.440;6.914;2023-06-05T13:42:24;25.40;99.90
16198;DHT22;8206;51.440;6.914;2023-06-05T13:44:52;25.30;99.90
16198;DHT22;8206;51.440;6.914;2023-06-05T13:47:19;25.30;99.90
16198;DHT22;8206;51.440;6.914;2023-06-05T13:49:46;25.40;99.90
16198;DHT22;8206;51.440;6.914;2023-06-05T13:52:12;25.50;99.90
16198;DHT22;8206;51.440;6.914;2023-06-05T13:54:39;25.40;99.90
16198;DHT22;8206;51.440;6.914;2023-06-05T13:57:08;25.50;99.90
16198;DHT22;8206;51.440;6.914;2023-06-05T13:59:35;25.60;99.90
16198;DHT22;8206;51.440;6.914;2023-06-05T14:02:04;25.60;99.90
16198;DHT22;8206;51.440;6.914;2023-06-05T14:04:31;25.70;99.90
16198;DHT22;8206;51.440;6.914;2023-06-05T14:06:57;25.80;99.90
16198;DHT22;8206;51.440;6.914;2023-06-05T14:09:24;25.50;99.90
16198;DHT22;8206;51.440;6.914;2023-06-05T14:11:52;25.60;99.90
16198;DHT22;8206;51.440;6.914;2023-06-05T14:14:19;25.50;99.90
16198;DHT22;8206;51.440;6.914;2023-06-05T14:16:46;25.50;99.90
16198;DHT22;8206;51.440;6.914;2023-06-05T14:19:14;25.40;99.90
16198;DHT22;8206;51.440;6.914;2023-06-05T14:21:40;25.40;99.90
16198;DHT22;8206;51.440;6.914;2023-06-05T14:24:07;25.40;99.90
16198;DHT22;8206;51.440;6.914;2023-06-05T14:26:34;25.30;99.90
16198;DHT22;8206;51.440;6.914;2023-06-05T14:29:01;25.30;99.90
16198;DHT22;8206;51.440;6.914;2023-06-05T14:31:28;25.40;99.90
16198;DHT22;8206;51.440;6.914;2023-06-05T14:33:55;25.40;99.90
16198;DHT22;8206;51.440;6.914;2023-06-05T14:36:22;25.40;99.90
16198;DHT22;8206;51.440;6.914;2023-06-05T14:38:50;25.50;99.90
16198;DHT22;8206;51.440;6.914;2023-06-05T14:41:16;25.60;99.90
16198;DHT22;8206;51.440;6.914;2023-06-05T14:43:43;25.70;99.90
16198;DHT22;8206;51.440;6.914;2023-06-05T14:46:10;25.70;99.90
16198;DHT22;8206;51.440;6.914;2023-06-05T14:48:36;25.70;99.90
16198;DHT22;8206;51.440;6.914;2023-06-05T14:51:03;25.70;99.90
16198;DHT22;8206;51.440;6.914;2023-06-05T14:53:31;25.90;99.90
16198;DHT22;8206;51.440;6.914;2023-06-05T14:55:58;25.70;99.90
16198;DHT22;8206;51.440;6.914;2023-06-05T14:58:25;25.70;99.90
16198;DHT22;8206;51.440;6.914;2023-06-05T15:00:51;25.70;99.90
16198;DHT22;8206;51.440;6.914;2023-06-05T15:03:18;25.80;99.90
16198;DHT22;8206;51.440;6.914;2023-06-05T15:05:45;25.70;99.90
16198;DHT22;8206;51.440;6.914;2023-06-05T15:08:11;25.80;99.90
16198;DHT22;8206;51.440;6.914;2023-06-05T15:10:39;25.80;99.90
16198;DHT22;8206;51.440;6.914;2023-06-05T15:13:06;25.70;99.90
16198;DHT22;8206;51.440;6.914;2023-06-05T15:15:33;25.70;99.90
16198;DHT22;8206;51.440;6.914;2023-06-05T15:17:59;25.50;99.90
16198;DHT22;8206;51.440;6.914;2023-06-05T15:20:26;25.50;99.90
16198;DHT22;8206;51.440;6.914;2023-06-05T15:22:53;25.50;99.90
16198;DHT22;8206;51.440;6.914;2023-06-05T15:25:20;25.60;99.90
16198;DHT22;8206;51.440;6.914;2023-06-05T15:27:50;25.60;99.90
16198;DHT22;8206;51.440;6.914;2023-06-05T15:30:16;25.50;99.90
16198;DHT22;8206;51.440;6.914;2023-06-05T15:32:43;25.50;99.90
16198;DHT22;8206;51.440;6.914;2023-06-05T15:35:10;25.40;99.90
16198;DHT22;8206;51.440;6.914;2023-06-05T15:37:37;25.40;99.90
16198;DHT22;8206;51.440;6.914;2023-06-05T15:40:04;25.50;99.90
16198;DHT22;8206;51.440;6.914;2023-06-05T15:42:33;25.60;99.90
16198;DHT22;8206;51.440;6.914;2023-06-05T15:45:08;25.60;99.90
16198;DHT22;8206;51.440;6.914;2023-06-05T15:47:34;25.40;99.90
16198;DHT22;8206;51.440;6.914;2023-06-05T15:50:02;25.50;99.90
16198;DHT22;8206;51.440;6.914;2023-06-05T15:52:30;25.60;99.90
16198;DHT22;8206;51.440;6.914;2023-06-05T15:54:56;25.60;99.90